Time;durP1;ratioP1;P1;durP2;ratioP2;P2;SDS_P1;SDS_P2;PMS_P1;PMS_P2;Temp;Humidity;BMP_temperature;BMP_pressure;BME280_temperature;BME280_humidity;BME280_pressure;Samples;Min_cycle;Max_cycle;Signal;HPM_P1;HPM_P2
2023/09/19 00:06:31;;;;;;;9.35;3.38;;;;;;;26.96;44.66;96528.91;6124433;23;20463;-26
2023/09/19 00:22:53;;;;;;;10.80;3.50;;;;;;;26.88;44.46;96508.53;6125910;23;20495;-26
2023/09/19 00:36:13;;;;;;;7.57;3.17;;;;;;;26.84;45.15;96520.72;6127781;23;20048;-26
2023/09/19 00:52:07;;;;;;;5.80;2.88;;;;;;;27.00;44.82;96505.03;6127192;23;20080;-26
2023/09/19 01:07:59;;;;;;;7.28;3.00;;;;;;;26.95;44.51;96499.59;6125267;23;20079;-26
2023/09/19 01:37:25;;;;;;;7.82;3.53;;;;;;;26.66;45.18;96504.13;6126949;23;20032;-26
2023/09/19 01:53:33;;;;;;;7.07;3.30;;;;;;;26.76;44.79;96511.53;6126338;23;20017;-26
2023/09/19 02:23:17;;;;;;;10.00;3.47;;;;;;;26.69;45.87;96512.16;6126004;23;20108;-26
2023/09/19 02:39:11;;;;;;;7.10;3.15;;;;;;;26.89;46.64;96521.16;6125920;23;20344;-26
2023/09/19 03:08:30;;;;;;;10.30;3.50;;;;;;;26.82;47.87;96514.97;6124867;23;20096;-25
2023/09/19 03:10:55;;;;;;;8.55;4.35;;;;;;;26.66;48.17;96524.34;6126282;23;20424;-26
2023/09/19 03:23:27;;;;;;;11.32;4.00;;;;;;;26.63;48.85;96511.50;6125255;23;20093;-26
2023/09/19 03:39:19;;;;;;;6.22;4.18;;;;;;;26.71;48.72;96492.88;6125760;23;20467;-26
2023/09/19 03:41:45;;;;;;;10.57;3.67;;;;;;;26.72;48.61;96488.81;6125844;23;20002;-26
2023/09/19 03:44:10;;;;;;;10.60;3.92;;;;;;;26.77;49.12;96487.97;6125838;23;20088;-26
2023/09/19 03:53:25;;;;;;;5.07;3.25;;;;;;;26.72;48.64;96494.38;6125862;23;20065;-25
2023/09/19 04:09:18;;;;;;;9.57;3.90;;;;;;;26.57;49.49;96483.03;6125971;23;20084;-26
2023/09/19 04:25:10;;;;;;;6.72;3.92;;;;;;;26.74;49.85;96488.28;6127224;23;20020;-26
2023/09/19 04:41:02;;;;;;;10.88;4.60;;;;;;;26.64;51.10;96484.44;6127145;23;20017;-26
2023/09/19 04:54:04;;;;;;;11.57;4.40;;;;;;;26.57;52.16;96477.47;6127312;23;20044;-26
2023/09/19 05:10:09;;;;;;;;;;;;;;;26.53;51.74;96481.84;6125984;23;20088;-25
2023/09/19 05:26:03;;;;;;;8.82;4.20;;;;;;;26.66;52.15;96502.09;6126561;23;20020;-25
2023/09/19 05:28:29;;;;;;;8.85;4.22;;;;;;;26.63;52.27;96505.94;6126683;23;20005;-26
2023/09/19 05:30:55;;;;;;;7.70;4.47;;;;;;;26.65;52.55;96505.41;6127118;23;20021;-26
2023/09/19 05:40:07;;;;;;;17.38;4.95;;;;;;;26.51;52.99;96510.19;6126771;23;20013;-26
2023/09/19 05:56:00;;;;;;;9.35;4.72;;;;;;;26.73;52.87;96529.28;6126273;23;20021;-26
2023/09/19 06:11:57;;;;;;;12.93;4.85;;;;;;;26.68;52.65;96530.13;6125368;23;20025;-26
2023/09/19 06:25:11;;;;;;;9.00;4.78;;;;;;;26.60;53.56;96543.16;6125860;23;20464;-26
2023/09/19 06:41:04;;;;;;;10.27;5.00;;;;;;;26.76;53.59;96556.03;6126200;23;20110;-26
2023/09/19 06:57:00;;;;;;;10.80;4.30;;;;;;;26.58;54.08;96559.63;6125607;23;20029;-26
2023/09/19 07:12:57;;;;;;;10.45;4.82;;;;;;;26.70;54.44;96554.66;6125502;23;20356;-26
2023/09/19 07:25:56;;;;;;;9.00;4.65;;;;;;;26.75;53.66;96562.13;6125370;23;20064;-26
2023/09/19 07:41:49;;;;;;;11.20;5.32;;;;;;;26.92;54.73;96567.41;6127343;23;20344;-25
2023/09/19 07:57:43;;;;;;;14.15;5.38;;;;;;;26.96;54.25;96590.13;6127622;23;20074;-25
2023/09/19 08:00:12;;;;;;;12.75;4.53;;;;;;;26.97;54.43;96592.38;6127566;23;20344;-26
2023/09/19 08:12:47;;;;;;;15.85;4.82;;;;;;;26.94;54.99;96593.47;6126333;23;20032;-25
2023/09/19 08:28:43;;;;;;;8.85;4.30;;;;;;;27.18;54.25;96584.19;6126944;23;20021;-26
2023/09/19 08:41:44;;;;;;;11.20;3.75;;;;;;;27.39;53.36;96595.44;6127419;23;20017;-25
2023/09/19 08:44:10;;;;;;;9.32;3.72;;;;;;;27.46;53.26;96589.97;6126896;23;20035;-25
2023/09/19 08:57:02;;;;;;;13.07;3.88;;;;;;;27.52;52.37;96592.66;6126703;23;20021;-25
2023/09/19 09:12:57;;;;;;;10.93;4.18;;;;;;;27.57;51.21;96593.88;6125515;23;20510;-26
2023/09/19 09:28:49;;;;;;;11.23;3.78;;;;;;;27.70;51.52;96591.06;6126753;23;20501;-25
2023/09/19 09:31:25;;;;;;;13.07;4.80;;;;;;;27.59;52.73;96591.28;6126947;23;20012;-24
2023/09/19 09:43:55;;;;;;;8.40;3.72;;;;;;;27.86;50.31;96587.94;6126730;23;20344;-25
2023/09/19 09:59:53;;;;;;;9.93;3.58;;;;;;;27.97;50.19;96566.69;6126263;23;20020;-26
2023/09/19 10:12:48;;;;;;;8.88;4.10;;;;;;;27.79;50.29;96571.88;6125749;23;20017;-26
2023/09/19 10:28:41;;;;;;;12.43;4.53;;;;;;;28.00;49.83;96573.97;6096583;23;20548;-26
2023/09/19 10:44:43;;;;;;;7.78;3.22;;;;;;;28.02;49.16;96563.03;6096431;23;20074;-26
2023/09/19 11:14:20;;;;;;;7.72;3.40;;;;;;;27.98;49.30;96555.00;6110001;23;20032;-26
2023/09/19 11:30:30;;;;;;;9.73;3.58;;;;;;;27.89;49.06;96552.66;6125598;23;20062;-26
2023/09/19 11:59:30;;;;;;;9.88;3.13;;;;;;;28.01;46.91;96542.78;6125693;23;20376;-26
2023/09/19 12:15:28;;;;;;;10.82;3.40;;;;;;;28.19;46.17;96507.66;6124026;23;20041;-26
2023/09/19 12:31:20;;;;;;;6.38;3.10;;;;;;;28.00;46.98;96502.25;6127225;23;20017;-26
2023/09/19 12:44:35;;;;;;;9.60;3.53;;;;;;;28.04;46.56;96511.03;6127314;23;20454;-26
2023/09/19 13:00:37;;;;;;;9.50;3.88;;;;;;;28.06;48.01;96507.69;6126906;23;20031;-26
2023/09/19 13:16:29;;;;;;;19.60;3.78;;;;;;;28.24;48.19;96501.94;6125424;23;20029;-26
2023/09/19 13:45:49;;;;;;;12.82;3.00;;;;;;;28.18;47.94;96493.00;6126418;23;20072;-26
2023/09/19 13:48:15;;;;;;;8.93;3.10;;;;;;;28.22;47.93;96490.59;6126741;23;20002;-26
2023/09/19 13:50:43;;;;;;;8.80;3.00;;;;;;;28.28;48.16;96487.69;6126418;23;20006;-26
2023/09/19 14:00:23;;;;;;;11.32;3.00;;;;;;;28.22;48.72;96482.22;6126287;23;20013;-26
2023/09/19 14:16:17;;;;;;;12.80;3.67;;;;;;;28.22;49.23;96468.28;6124629;23;20072;-26
2023/09/19 14:32:10;;;;;;;12.15;3.75;;;;;;;28.17;48.85;96466.38;6126394;23;20061;-26
2023/09/19 14:48:05;;;;;;;13.65;4.22;;;;;;;28.36;48.67;96471.00;6125926;23;20104;-26
2023/09/19 15:01:08;;;;;;;11.18;3.45;;;;;;;28.07;49.19;96465.31;6126096;23;20016;-26
2023/09/19 15:03:35;;;;;;;9.88;2.83;;;;;;;28.27;48.35;96463.13;6125796;23;20420;-26
2023/09/19 15:16:32;;;;;;;10.00;3.03;;;;;;;28.24;47.30;96476.09;6124729;23;20455;-26
2023/09/19 15:32:24;;;;;;;8.00;2.47;;;;;;;28.18;46.34;96495.03;6096577;23;20062;-26
2023/09/19 15:48:18;;;;;;;8.60;2.80;;;;;;;28.28;45.29;96500.88;6096342;23;20480;-26
2023/09/19 16:01:44;;;;;;;13.45;3.20;;;;;;;28.31;45.95;96505.38;6097054;23;20062;-26
2023/09/19 16:17:37;;;;;;;7.55;2.85;;;;;;;28.28;46.80;96503.66;6113713;23;20412;-26
2023/09/19 16:33:44;;;;;;;8.18;2.13;;;;;;;28.20;47.60;96493.16;6126906;23;20017;-26
2023/09/19 17:03:04;;;;;;;12.25;3.38;;;;;;;28.00;47.00;96502.25;6126867;23;20029;-26
2023/09/19 17:05:31;;;;;;;10.93;3.83;;;;;;;28.12;46.46;96506.28;6127009;23;20006;-25
2023/09/19 17:18:01;;;;;;;9.68;3.45;;;;;;;28.02;45.90;96516.38;6125618;23;20113;-26
2023/09/19 17:33:54;;;;;;;12.70;3.50;;;;;;;28.01;46.54;96520.47;6127148;23;20037;-26
2023/09/19 17:49:50;;;;;;;12.68;3.40;;;;;;;27.92;47.03;96525.75;6126358;23;20439;-26
2023/09/19 18:03:10;;;;;;;11.52;2.80;;;;;;;27.76;47.47;96545.09;6126556;23;20016;-26
2023/09/19 18:19:03;;;;;;;11.27;3.25;;;;;;;27.64;48.41;96559.78;6125384;23;20077;-26
2023/09/19 18:34:56;;;;;;;16.42;3.47;;;;;;;27.69;49.95;96581.22;6126396;23;20032;-26
2023/09/19 18:50:50;;;;;;;14.57;3.50;;;;;;;27.78;51.68;96583.56;6125682;23;20021;-26
2023/09/19 19:03:52;;;;;;;14.20;4.00;;;;;;;27.49;54.18;96583.34;6126187;23;20036;-26
2023/09/19 19:19:44;;;;;;;9.02;3.50;;;;;;;27.47;54.82;96602.63;6124695;23;20069;-26
2023/09/19 19:22:10;;;;;;;14.05;4.03;;;;;;;27.33;55.07;96605.91;6126154;23;20372;-26
2023/09/19 19:34:41;;;;;;;19.50;4.35;;;;;;;27.15;55.81;96599.16;6125575;23;20049;-26
2023/09/19 19:50:38;;;;;;;14.98;4.78;;;;;;;27.28;56.02;96624.25;6127818;23;20074;-26
2023/09/19 19:53:03;;;;;;;17.05;4.20;;;;;;;27.24;56.60;96632.16;6127935;23;20348;-26
2023/09/19 20:05:39;;;;;;;21.77;5.93;;;;;;;27.27;56.99;96636.66;6127505;23;20065;-26
2023/09/19 20:21:31;;;;;;;15.50;6.22;;;;;;;27.15;58.56;96619.41;6125879;23;20037;-26
2023/09/19 20:34:55;;;;;;;14.15;3.75;;;;;;;27.43;55.25;96618.91;6127562;23;20487;-26
2023/09/19 20:50:48;;;;;;;16.67;4.63;;;;;;;27.26;55.48;96604.53;6127005;23;20016;-26
2023/09/19 21:06:41;;;;;;;18.63;3.88;;;;;;;27.23;52.99;96618.75;6126799;23;20021;-26
2023/09/19 21:09:08;;;;;;;10.52;4.13;;;;;;;27.16;52.79;96622.94;6127258;23;20001;-26
2023/09/19 21:21:40;;;;;;;11.63;3.88;;;;;;;26.98;51.95;96629.31;6125655;23;20029;-27
2023/09/19 21:37:32;;;;;;;8.85;2.80;;;;;;;27.07;49.16;96635.25;6126437;23;20045;-26
2023/09/19 21:50:49;;;;;;;9.32;3.17;;;;;;;26.83;49.39;96652.03;6126750;23;20013;-26
2023/09/19 22:06:41;;;;;;;11.95;3.15;;;;;;;26.87;49.56;96638.56;6126132;23;20021;-26
2023/09/19 22:22:33;;;;;;;12.60;2.92;;;;;;;26.82;47.49;96651.31;6124774;23;20092;-26
2023/09/19 22:38:26;;;;;;;8.65;2.13;;;;;;;26.75;44.01;96665.81;6126450;23;20071;-25
2023/09/19 22:51:36;;;;;;;10.23;3.55;;;;;;;26.63;48.11;96664.50;6126003;23;20016;-26
2023/09/19 23:07:57;;;;;;;12.27;3.60;;;;;;;26.55;52.80;96649.69;6126073;23;20044;-26
2023/09/19 23:23:50;;;;;;;10.88;3.60;;;;;;;26.44;52.56;96652.66;6124987;23;20076;-26
2023/09/19 23:37:01;;;;;;;10.95;3.25;;;;;;;26.43;53.30;96659.50;6126030;23;20069;-26
2023/09/19 23:39:26;;;;;;;13.18;3.35;;;;;;;26.51;53.75;96667.97;6125503;23;20002;-25
2023/09/19 23:52:13;;;;;;;11.50;3.13;;;;;;;26.66;53.39;96671.03;6125471;23;20029;-26
